This is the latest recevied weather packets stored in our database for station/object SA7AHC. If no packets are shown the sender has not sent any weather packets the latest 10 day(s).
| Time | Temp. | Humidity | Pressure | Rain* | Wind** | Luminosity | Snow |
|---|---|---|---|---|---|---|---|
| 1777785250 | 11.67° C | 75% | 1011 hPa | 0 mm | - | 60 W/m² | - |
| 1777784648 | 11.11° C | 75% | 1010.7 hPa | 0 mm | - | 56 W/m² | - |
| 1777784055 | 11.11° C | 74% | 1010.7 hPa | 0 mm | - | 47 W/m² | - |
| 1777783448 | 10.56° C | 74% | 1010.6 hPa | 0 mm | - | 42 W/m² | - |
| 1777782847 | 10.56° C | 74% | 1010.6 hPa | 0 mm | - | 47 W/m² | - |
| 1777782242 | 10.56° C | 74% | 1010.6 hPa | 0 mm | - | 54 W/m² | - |
| 1777781651 | 10° C | 74% | 1010.7 hPa | 0 mm | - | 44 W/m² | - |
| 1777781048 | 10° C | 75% | 1010.8 hPa | 0 mm | - | 35 W/m² | - |
| 1777780448 | 9.44° C | 75% | 1010.7 hPa | 0 mm | - | 25 W/m² | - |
| 1777779850 | 9.44° C | 77% | 1010.7 hPa | 0 mm | - | 19 W/m² | - |
| 1777779249 | 8.89° C | 76% | 1010.6 hPa | 0 mm | - | 14 W/m² | - |
| 1777778645 | 8.89° C | 76% | 1010.6 hPa | 0 mm | - | 9 W/m² | - |
| 1777778048 | 8.89° C | 77% | 1010.5 hPa | 0 mm | - | 5 W/m² | - |
| 1777777444 | 8.89° C | 76% | 1010.7 hPa | 0 mm | - | 0 W/m² | - |
| 1777776848 | 8.89° C | 75% | 1010.8 hPa | 0 mm | - | 0 W/m² | - |
| 1777776248 | 9.44° C | 74% | 1010.8 hPa | 0 mm | - | 0 W/m² | - |
| 1777775645 | 9.44° C | 72% | 1010.8 hPa | 0 mm | - | 0 W/m² | - |
| 1777775048 | 10° C | 71% | 1010.8 hPa | 0 mm | - | 0 W/m² | - |
| 1777774447 | 10° C | 70% | 1010.9 hPa | 0 mm | - | 0 W/m² | - |
| 1777773845 | 10.56° C | 69% | 1010.9 hPa | 0 mm | - | 0 W/m² | - |
| 1777773247 | 11.11° C | 68% | 1010.9 hPa | 0 mm | - | 0 W/m² | - |
| 1777772647 | 11.11° C | 67% | 1011 hPa | 0 mm | - | 0 W/m² | - |
| 1777772049 | 11.67° C | 65% | 1011 hPa | 0 mm | - | 0 W/m² | - |
| 1777771452 | 12.22° C | 63% | 1011.1 hPa | 0 mm | - | 0 W/m² | - |
| 1777770849 | 13.33° C | 61% | 1011.2 hPa | 0 mm | - | 0 W/m² | - |
* Rain latest hour (hover to see other rain measurements)
** Current wind speed in m/s (hover to see current wind gust speed)